YXZ weather

Wawa Airport
Wawa, Ontario, Canada

Public forecast

Using degrees Celsius for public forecast. Weather courtesy of forecast.io.

Current aviation weather report (METAR) for Wawa Airport

Report is more than 6 hours old.

Retrieved 2020/04/07 00:00 UTC (10 hours ago):

CYXZ 070000Z VRB02KT 15SM FEW030 SCT075 BKN240 02/M07 A2999 RMK CF1AC2CI3 LAST OBS/NEXT 071100UTC SLP174

Aviation forecast (TAF) for Wawa Airport

Forecast is more than 12 hours old.

Retrieved 2020/04/06 20:00 UTC (14 hours ago):

TAF CYXZ 061938Z 0620/0624 27005KT P6SM SCT140 SCT240 RMK NXT FCST WILL BE ISSUED AT 071245Z